sensor_id;sensor_type;location;lat;lon;timestamp;P1;durP1;ratioP1;P2;durP2;ratioP2
18883;SDS011;9574;47.282;9.640;2023-04-06T00:00:33;6.03;;;4.03;;
18883;SDS011;9574;47.282;9.640;2023-04-06T00:03:03;6.53;;;4.07;;
18883;SDS011;9574;47.282;9.640;2023-04-06T00:05:33;7.00;;;3.70;;
18883;SDS011;9574;47.282;9.640;2023-04-06T00:08:00;7.90;;;4.47;;
18883;SDS011;9574;47.282;9.640;2023-04-06T00:10:27;6.10;;;4.17;;
18883;SDS011;9574;47.282;9.640;2023-04-06T00:12:58;6.47;;;4.40;;
18883;SDS011;9574;47.282;9.640;2023-04-06T00:15:28;8.87;;;4.07;;
18883;SDS011;9574;47.282;9.640;2023-04-06T00:17:58;6.13;;;3.57;;
18883;SDS011;9574;47.282;9.640;2023-04-06T00:20:25;7.43;;;4.17;;
18883;SDS011;9574;47.282;9.640;2023-04-06T00:22:57;7.43;;;4.80;;
18883;SDS011;9574;47.282;9.640;2023-04-06T00:25:27;10.33;;;4.30;;
18883;SDS011;9574;47.282;9.640;2023-04-06T00:27:54;8.43;;;4.60;;
18883;SDS011;9574;47.282;9.640;2023-04-06T00:30:21;9.53;;;4.37;;
18883;SDS011;9574;47.282;9.640;2023-04-06T00:33:03;7.90;;;4.20;;
18883;SDS011;9574;47.282;9.640;2023-04-06T00:35:31;8.13;;;4.70;;
18883;SDS011;9574;47.282;9.640;2023-04-06T00:38:03;8.70;;;4.30;;
18883;SDS011;9574;47.282;9.640;2023-04-06T00:40:31;6.83;;;4.10;;
18883;SDS011;9574;47.282;9.640;2023-04-06T00:43:00;6.53;;;4.77;;
18883;SDS011;9574;47.282;9.640;2023-04-06T00:45:29;6.83;;;4.40;;
18883;SDS011;9574;47.282;9.640;2023-04-06T00:47:58;5.70;;;3.87;;
18883;SDS011;9574;47.282;9.640;2023-04-06T00:50:28;5.43;;;3.50;;
18883;SDS011;9574;47.282;9.640;2023-04-06T00:52:56;6.70;;;4.47;;
18883;SDS011;9574;47.282;9.640;2023-04-06T00:55:26;6.73;;;3.63;;
18883;SDS011;9574;47.282;9.640;2023-04-06T00:57:55;6.03;;;3.70;;
18883;SDS011;9574;47.282;9.640;2023-04-06T01:00:27;9.23;;;4.63;;
18883;SDS011;9574;47.282;9.640;2023-04-06T01:02:55;8.13;;;4.00;;
18883;SDS011;9574;47.282;9.640;2023-04-06T01:05:23;6.67;;;4.57;;
18883;SDS011;9574;47.282;9.640;2023-04-06T01:07:50;8.50;;;4.37;;
18883;SDS011;9574;47.282;9.640;2023-04-06T01:10:26;8.60;;;4.23;;
18883;SDS011;9574;47.282;9.640;2023-04-06T01:12:53;7.50;;;4.40;;
18883;SDS011;9574;47.282;9.640;2023-04-06T01:15:21;7.83;;;4.10;;
18883;SDS011;9574;47.282;9.640;2023-04-06T01:17:51;8.70;;;4.33;;
18883;SDS011;9574;47.282;9.640;2023-04-06T01:20:19;7.10;;;4.30;;
18883;SDS011;9574;47.282;9.640;2023-04-06T01:22:48;6.97;;;4.30;;
18883;SDS011;9574;47.282;9.640;2023-04-06T01:25:15;6.47;;;4.67;;
18883;SDS011;9574;47.282;9.640;2023-04-06T01:27:43;7.20;;;3.97;;
18883;SDS011;9574;47.282;9.640;2023-04-06T01:30:12;5.07;;;4.00;;
18883;SDS011;9574;47.282;9.640;2023-04-06T01:32:42;7.57;;;4.73;;
18883;SDS011;9574;47.282;9.640;2023-04-06T01:35:10;9.10;;;4.70;;
18883;SDS011;9574;47.282;9.640;2023-04-06T01:37:37;9.10;;;4.13;;
18883;SDS011;9574;47.282;9.640;2023-04-06T01:40:08;6.47;;;4.23;;
18883;SDS011;9574;47.282;9.640;2023-04-06T01:42:37;7.87;;;4.07;;
18883;SDS011;9574;47.282;9.640;2023-04-06T01:45:05;6.73;;;4.30;;
18883;SDS011;9574;47.282;9.640;2023-04-06T01:47:35;8.70;;;4.33;;
18883;SDS011;9574;47.282;9.640;2023-04-06T01:50:03;5.83;;;4.30;;
18883;SDS011;9574;47.282;9.640;2023-04-06T01:52:32;6.80;;;4.00;;
18883;SDS011;9574;47.282;9.640;2023-04-06T01:54:59;5.23;;;3.73;;
18883;SDS011;9574;47.282;9.640;2023-04-06T01:57:28;6.93;;;4.63;;
18883;SDS011;9574;47.282;9.640;2023-04-06T01:59:56;6.23;;;4.03;;
18883;SDS011;9574;47.282;9.640;2023-04-06T02:02:25;6.13;;;4.00;;
18883;SDS011;9574;47.282;9.640;2023-04-06T02:04:53;6.67;;;3.50;;
18883;SDS011;9574;47.282;9.640;2023-04-06T02:07:21;5.63;;;4.17;;
18883;SDS011;9574;47.282;9.640;2023-04-06T02:09:50;5.53;;;4.00;;
18883;SDS011;9574;47.282;9.640;2023-04-06T02:12:22;5.90;;;4.07;;
18883;SDS011;9574;47.282;9.640;2023-04-06T02:15:00;6.63;;;4.50;;
18883;SDS011;9574;47.282;9.640;2023-04-06T02:17:28;8.20;;;4.47;;
18883;SDS011;9574;47.282;9.640;2023-04-06T02:19:56;8.33;;;3.87;;
18883;SDS011;9574;47.282;9.640;2023-04-06T02:22:23;6.93;;;4.07;;
18883;SDS011;9574;47.282;9.640;2023-04-06T02:24:51;8.13;;;4.60;;
18883;SDS011;9574;47.282;9.640;2023-04-06T02:27:20;5.77;;;4.50;;
18883;SDS011;9574;47.282;9.640;2023-04-06T02:29:51;7.47;;;4.03;;
18883;SDS011;9574;47.282;9.640;2023-04-06T02:32:19;7.03;;;4.43;;
18883;SDS011;9574;47.282;9.640;2023-04-06T02:34:48;6.67;;;4.33;;
18883;SDS011;9574;47.282;9.640;2023-04-06T02:37:17;6.17;;;3.97;;
18883;SDS011;9574;47.282;9.640;2023-04-06T02:39:45;8.87;;;4.40;;
18883;SDS011;9574;47.282;9.640;2023-04-06T02:42:18;10.47;;;4.40;;
18883;SDS011;9574;47.282;9.640;2023-04-06T02:44:46;7.20;;;4.53;;
18883;SDS011;9574;47.282;9.640;2023-04-06T02:47:17;6.80;;;4.30;;
18883;SDS011;9574;47.282;9.640;2023-04-06T02:49:45;7.27;;;4.10;;
18883;SDS011;9574;47.282;9.640;2023-04-06T02:52:13;5.30;;;4.07;;
18883;SDS011;9574;47.282;9.640;2023-04-06T02:54:47;5.97;;;4.30;;
18883;SDS011;9574;47.282;9.640;2023-04-06T02:57:16;6.33;;;3.93;;
18883;SDS011;9574;47.282;9.640;2023-04-06T02:59:43;7.40;;;4.50;;
18883;SDS011;9574;47.282;9.640;2023-04-06T03:02:13;10.87;;;4.60;;
18883;SDS011;9574;47.282;9.640;2023-04-06T03:04:44;7.47;;;4.47;;
18883;SDS011;9574;47.282;9.640;2023-04-06T03:07:11;5.40;;;3.80;;
18883;SDS011;9574;47.282;9.640;2023-04-06T03:09:39;7.63;;;4.03;;
18883;SDS011;9574;47.282;9.640;2023-04-06T03:12:08;6.43;;;4.03;;
18883;SDS011;9574;47.282;9.640;2023-04-06T03:14:36;7.13;;;4.13;;
18883;SDS011;9574;47.282;9.640;2023-04-06T03:17:04;6.73;;;4.13;;
18883;SDS011;9574;47.282;9.640;2023-04-06T03:19:32;6.53;;;4.30;;
18883;SDS011;9574;47.282;9.640;2023-04-06T03:22:02;8.40;;;4.80;;
18883;SDS011;9574;47.282;9.640;2023-04-06T03:24:32;6.60;;;4.10;;
18883;SDS011;9574;47.282;9.640;2023-04-06T03:27:00;8.47;;;4.63;;
18883;SDS011;9574;47.282;9.640;2023-04-06T03:29:32;6.23;;;3.87;;
18883;SDS011;9574;47.282;9.640;2023-04-06T03:31:59;7.30;;;4.17;;
18883;SDS011;9574;47.282;9.640;2023-04-06T03:34:26;10.30;;;4.00;;
18883;SDS011;9574;47.282;9.640;2023-04-06T03:36:55;6.00;;;4.00;;
18883;SDS011;9574;47.282;9.640;2023-04-06T03:39:28;9.70;;;4.30;;
18883;SDS011;9574;47.282;9.640;2023-04-06T03:41:56;5.23;;;3.87;;
18883;SDS011;9574;47.282;9.640;2023-04-06T03:44:33;5.60;;;3.87;;
18883;SDS011;9574;47.282;9.640;2023-04-06T03:47:03;5.83;;;4.20;;
18883;SDS011;9574;47.282;9.640;2023-04-06T03:49:30;8.07;;;4.47;;
18883;SDS011;9574;47.282;9.640;2023-04-06T03:51:58;5.90;;;4.10;;
18883;SDS011;9574;47.282;9.640;2023-04-06T03:54:32;5.20;;;3.80;;
18883;SDS011;9574;47.282;9.640;2023-04-06T03:57:01;10.60;;;4.70;;
18883;SDS011;9574;47.282;9.640;2023-04-06T03:59:33;6.17;;;4.30;;
18883;SDS011;9574;47.282;9.640;2023-04-06T04:02:00;8.17;;;4.57;;
18883;SDS011;9574;47.282;9.640;2023-04-06T04:04:28;7.77;;;5.10;;
18883;SDS011;9574;47.282;9.640;2023-04-06T04:06:57;7.17;;;4.00;;
18883;SDS011;9574;47.282;9.640;2023-04-06T04:09:28;10.13;;;5.10;;
18883;SDS011;9574;47.282;9.640;2023-04-06T04:11:58;11.97;;;4.93;;
18883;SDS011;9574;47.282;9.640;2023-04-06T04:14:26;7.87;;;5.27;;
18883;SDS011;9574;47.282;9.640;2023-04-06T04:16:54;10.27;;;4.87;;
18883;SDS011;9574;47.282;9.640;2023-04-06T04:19:21;12.93;;;4.83;;
18883;SDS011;9574;47.282;9.640;2023-04-06T04:21:51;9.13;;;4.37;;
18883;SDS011;9574;47.282;9.640;2023-04-06T04:24:22;5.57;;;3.90;;
18883;SDS011;9574;47.282;9.640;2023-04-06T04:26:50;7.93;;;4.50;;
18883;SDS011;9574;47.282;9.640;2023-04-06T04:29:29;11.03;;;4.37;;
18883;SDS011;9574;47.282;9.640;2023-04-06T04:31:57;6.80;;;4.37;;
18883;SDS011;9574;47.282;9.640;2023-04-06T04:34:26;6.97;;;4.27;;
18883;SDS011;9574;47.282;9.640;2023-04-06T04:36:56;10.07;;;4.53;;
18883;SDS011;9574;47.282;9.640;2023-04-06T04:39:23;7.43;;;4.03;;
18883;SDS011;9574;47.282;9.640;2023-04-06T04:41:52;5.63;;;3.43;;
18883;SDS011;9574;47.282;9.640;2023-04-06T04:44:21;6.53;;;3.90;;
18883;SDS011;9574;47.282;9.640;2023-04-06T04:46:49;6.20;;;4.40;;
18883;SDS011;9574;47.282;9.640;2023-04-06T04:49:20;6.70;;;4.07;;
18883;SDS011;9574;47.282;9.640;2023-04-06T04:51:50;6.23;;;3.90;;
18883;SDS011;9574;47.282;9.640;2023-04-06T04:54:18;9.33;;;3.77;;
18883;SDS011;9574;47.282;9.640;2023-04-06T04:56:47;10.17;;;4.67;;
18883;SDS011;9574;47.282;9.640;2023-04-06T04:59:18;8.87;;;4.53;;
18883;SDS011;9574;47.282;9.640;2023-04-06T05:01:46;8.37;;;4.50;;
18883;SDS011;9574;47.282;9.640;2023-04-06T05:04:16;8.67;;;4.87;;
18883;SDS011;9574;47.282;9.640;2023-04-06T05:06:45;8.70;;;4.67;;
18883;SDS011;9574;47.282;9.640;2023-04-06T05:09:21;8.37;;;4.90;;
18883;SDS011;9574;47.282;9.640;2023-04-06T05:11:48;7.57;;;4.30;;
18883;SDS011;9574;47.282;9.640;2023-04-06T05:14:17;9.83;;;4.40;;
18883;SDS011;9574;47.282;9.640;2023-04-06T05:16:47;7.87;;;4.60;;
18883;SDS011;9574;47.282;9.640;2023-04-06T05:19:15;9.23;;;4.67;;
18883;SDS011;9574;47.282;9.640;2023-04-06T05:21:43;10.70;;;4.77;;
18883;SDS011;9574;47.282;9.640;2023-04-06T05:24:10;8.30;;;4.63;;
18883;SDS011;9574;47.282;9.640;2023-04-06T05:26:39;6.07;;;3.83;;
18883;SDS011;9574;47.282;9.640;2023-04-06T05:29:06;8.43;;;4.30;;
18883;SDS011;9574;47.282;9.640;2023-04-06T05:31:34;6.67;;;4.27;;
18883;SDS011;9574;47.282;9.640;2023-04-06T05:34:05;6.90;;;5.23;;
18883;SDS011;9574;47.282;9.640;2023-04-06T05:36:34;8.23;;;4.60;;
18883;SDS011;9574;47.282;9.640;2023-04-06T05:39:03;11.93;;;4.50;;
18883;SDS011;9574;47.282;9.640;2023-04-06T05:41:31;7.00;;;4.57;;
18883;SDS011;9574;47.282;9.640;2023-04-06T05:43:58;5.87;;;4.13;;
18883;SDS011;9574;47.282;9.640;2023-04-06T05:46:26;7.53;;;4.97;;
18883;SDS011;9574;47.282;9.640;2023-04-06T05:48:54;7.23;;;4.73;;
18883;SDS011;9574;47.282;9.640;2023-04-06T05:51:23;10.50;;;5.33;;
18883;SDS011;9574;47.282;9.640;2023-04-06T05:53:51;8.97;;;5.50;;
18883;SDS011;9574;47.282;9.640;2023-04-06T05:56:19;11.10;;;6.40;;
18883;SDS011;9574;47.282;9.640;2023-04-06T05:58:49;13.33;;;4.90;;
18883;SDS011;9574;47.282;9.640;2023-04-06T06:01:17;8.20;;;5.80;;
18883;SDS011;9574;47.282;9.640;2023-04-06T06:03:46;10.23;;;5.60;;
18883;SDS011;9574;47.282;9.640;2023-04-06T06:06:14;9.93;;;4.80;;
18883;SDS011;9574;47.282;9.640;2023-04-06T06:08:43;13.07;;;5.83;;
18883;SDS011;9574;47.282;9.640;2023-04-06T06:11:12;13.47;;;5.67;;
18883;SDS011;9574;47.282;9.640;2023-04-06T06:13:41;7.47;;;4.70;;
18883;SDS011;9574;47.282;9.640;2023-04-06T06:16:08;8.60;;;4.90;;
18883;SDS011;9574;47.282;9.640;2023-04-06T06:18:36;6.83;;;4.20;;
18883;SDS011;9574;47.282;9.640;2023-04-06T06:21:06;7.93;;;4.20;;
18883;SDS011;9574;47.282;9.640;2023-04-06T06:23:34;7.83;;;4.40;;
18883;SDS011;9574;47.282;9.640;2023-04-06T06:26:04;9.73;;;5.23;;
18883;SDS011;9574;47.282;9.640;2023-04-06T06:28:33;6.60;;;4.83;;
18883;SDS011;9574;47.282;9.640;2023-04-06T06:31:04;8.77;;;4.77;;
18883;SDS011;9574;47.282;9.640;2023-04-06T06:33:32;7.57;;;4.87;;
18883;SDS011;9574;47.282;9.640;2023-04-06T06:36:02;15.67;;;4.90;;
18883;SDS011;9574;47.282;9.640;2023-04-06T06:38:29;7.67;;;4.63;;
18883;SDS011;9574;47.282;9.640;2023-04-06T06:40:57;8.63;;;4.30;;
18883;SDS011;9574;47.282;9.640;2023-04-06T06:43:27;9.73;;;4.33;;
18883;SDS011;9574;47.282;9.640;2023-04-06T06:45:54;8.20;;;4.13;;
18883;SDS011;9574;47.282;9.640;2023-04-06T06:48:21;8.40;;;4.47;;
18883;SDS011;9574;47.282;9.640;2023-04-06T06:50:50;8.33;;;4.70;;
18883;SDS011;9574;47.282;9.640;2023-04-06T06:53:17;7.90;;;4.73;;
18883;SDS011;9574;47.282;9.640;2023-04-06T06:55:45;6.93;;;4.43;;
18883;SDS011;9574;47.282;9.640;2023-04-06T06:58:15;11.23;;;4.07;;
18883;SDS011;9574;47.282;9.640;2023-04-06T07:00:47;7.17;;;4.23;;
18883;SDS011;9574;47.282;9.640;2023-04-06T07:03:15;7.10;;;4.53;;
18883;SDS011;9574;47.282;9.640;2023-04-06T07:05:45;7.30;;;4.50;;
18883;SDS011;9574;47.282;9.640;2023-04-06T07:08:18;6.53;;;4.27;;
18883;SDS011;9574;47.282;9.640;2023-04-06T07:10:45;6.87;;;4.90;;
18883;SDS011;9574;47.282;9.640;2023-04-06T07:13:12;8.20;;;4.37;;
18883;SDS011;9574;47.282;9.640;2023-04-06T07:15:44;6.03;;;4.37;;
18883;SDS011;9574;47.282;9.640;2023-04-06T07:18:13;6.80;;;3.87;;
18883;SDS011;9574;47.282;9.640;2023-04-06T07:20:43;6.37;;;4.40;;
18883;SDS011;9574;47.282;9.640;2023-04-06T07:23:10;7.20;;;3.87;;
18883;SDS011;9574;47.282;9.640;2023-04-06T07:25:37;7.17;;;4.73;;
18883;SDS011;9574;47.282;9.640;2023-04-06T07:28:07;8.73;;;4.43;;
18883;SDS011;9574;47.282;9.640;2023-04-06T07:30:36;8.53;;;4.70;;
18883;SDS011;9574;47.282;9.640;2023-04-06T07:33:14;7.37;;;4.30;;
18883;SDS011;9574;47.282;9.640;2023-04-06T07:35:43;9.87;;;5.17;;
18883;SDS011;9574;47.282;9.640;2023-04-06T07:38:15;9.63;;;4.87;;
18883;SDS011;9574;47.282;9.640;2023-04-06T07:40:43;6.03;;;4.47;;
18883;SDS011;9574;47.282;9.640;2023-04-06T07:43:11;9.20;;;4.53;;
18883;SDS011;9574;47.282;9.640;2023-04-06T07:45:40;6.33;;;4.60;;
18883;SDS011;9574;47.282;9.640;2023-04-06T07:48:10;6.07;;;4.10;;
18883;SDS011;9574;47.282;9.640;2023-04-06T07:50:38;6.83;;;4.70;;
18883;SDS011;9574;47.282;9.640;2023-04-06T07:53:08;5.67;;;4.40;;
18883;SDS011;9574;47.282;9.640;2023-04-06T07:55:37;9.10;;;4.50;;
18883;SDS011;9574;47.282;9.640;2023-04-06T07:58:04;6.03;;;4.17;;
18883;SDS011;9574;47.282;9.640;2023-04-06T08:00:33;8.27;;;4.47;;
18883;SDS011;9574;47.282;9.640;2023-04-06T08:03:01;6.57;;;4.40;;
18883;SDS011;9574;47.282;9.640;2023-04-06T08:05:29;6.73;;;4.30;;
18883;SDS011;9574;47.282;9.640;2023-04-06T08:07:58;9.57;;;4.47;;
18883;SDS011;9574;47.282;9.640;2023-04-06T08:10:26;6.60;;;4.43;;
18883;SDS011;9574;47.282;9.640;2023-04-06T08:13:01;7.90;;;4.13;;
18883;SDS011;9574;47.282;9.640;2023-04-06T08:15:29;7.97;;;4.43;;
18883;SDS011;9574;47.282;9.640;2023-04-06T08:18:03;7.27;;;4.27;;
18883;SDS011;9574;47.282;9.640;2023-04-06T08:20:33;10.07;;;4.53;;
18883;SDS011;9574;47.282;9.640;2023-04-06T08:23:01;6.70;;;4.67;;
18883;SDS011;9574;47.282;9.640;2023-04-06T08:25:43;16.50;;;5.00;;
18883;SDS011;9574;47.282;9.640;2023-04-06T08:28:10;6.37;;;4.53;;
18883;SDS011;9574;47.282;9.640;2023-04-06T08:30:41;5.80;;;4.30;;
18883;SDS011;9574;47.282;9.640;2023-04-06T08:33:12;8.33;;;4.77;;
18883;SDS011;9574;47.282;9.640;2023-04-06T08:35:45;7.93;;;4.67;;
18883;SDS011;9574;47.282;9.640;2023-04-06T08:38:14;9.27;;;5.00;;
18883;SDS011;9574;47.282;9.640;2023-04-06T08:40:41;8.17;;;4.40;;
18883;SDS011;9574;47.282;9.640;2023-04-06T08:43:13;9.60;;;5.17;;
18883;SDS011;9574;47.282;9.640;2023-04-06T08:45:42;8.30;;;4.80;;
18883;SDS011;9574;47.282;9.640;2023-04-06T08:48:10;8.57;;;5.30;;
18883;SDS011;9574;47.282;9.640;2023-04-06T08:50:39;7.00;;;4.37;;
18883;SDS011;9574;47.282;9.640;2023-04-06T08:53:09;7.43;;;4.77;;
18883;SDS011;9574;47.282;9.640;2023-04-06T08:55:38;5.70;;;4.30;;
18883;SDS011;9574;47.282;9.640;2023-04-06T08:58:08;6.80;;;4.40;;
18883;SDS011;9574;47.282;9.640;2023-04-06T09:00:39;11.00;;;4.53;;
18883;SDS011;9574;47.282;9.640;2023-04-06T09:03:08;8.47;;;4.70;;
18883;SDS011;9574;47.282;9.640;2023-04-06T09:05:43;5.03;;;4.00;;
18883;SDS011;9574;47.282;9.640;2023-04-06T09:08:15;5.93;;;4.40;;
18883;SDS011;9574;47.282;9.640;2023-04-06T09:10:46;6.30;;;4.13;;
18883;SDS011;9574;47.282;9.640;2023-04-06T09:13:14;10.47;;;5.20;;
18883;SDS011;9574;47.282;9.640;2023-04-06T09:15:43;8.57;;;4.63;;
18883;SDS011;9574;47.282;9.640;2023-04-06T09:18:12;8.30;;;4.37;;
18883;SDS011;9574;47.282;9.640;2023-04-06T09:20:40;7.37;;;4.93;;
18883;SDS011;9574;47.282;9.640;2023-04-06T09:23:19;6.93;;;4.27;;
18883;SDS011;9574;47.282;9.640;2023-04-06T09:25:46;7.10;;;4.63;;
18883;SDS011;9574;47.282;9.640;2023-04-06T09:28:14;7.10;;;4.50;;
18883;SDS011;9574;47.282;9.640;2023-04-06T09:30:47;6.67;;;4.23;;
18883;SDS011;9574;47.282;9.640;2023-04-06T09:33:21;8.53;;;4.47;;
18883;SDS011;9574;47.282;9.640;2023-04-06T09:35:49;8.67;;;4.33;;
18883;SDS011;9574;47.282;9.640;2023-04-06T09:38:18;7.23;;;4.07;;
18883;SDS011;9574;47.282;9.640;2023-04-06T09:40:49;6.30;;;4.23;;
18883;SDS011;9574;47.282;9.640;2023-04-06T09:43:23;7.07;;;4.50;;
18883;SDS011;9574;47.282;9.640;2023-04-06T09:46:00;5.87;;;4.20;;
18883;SDS011;9574;47.282;9.640;2023-04-06T09:48:36;4.83;;;3.67;;
18883;SDS011;9574;47.282;9.640;2023-04-06T09:51:04;5.47;;;4.17;;
18883;SDS011;9574;47.282;9.640;2023-04-06T09:53:40;6.33;;;3.40;;
18883;SDS011;9574;47.282;9.640;2023-04-06T09:56:11;4.70;;;3.33;;
18883;SDS011;9574;47.282;9.640;2023-04-06T09:58:44;4.87;;;3.47;;
18883;SDS011;9574;47.282;9.640;2023-04-06T10:01:14;4.17;;;3.47;;
18883;SDS011;9574;47.282;9.640;2023-04-06T10:03:49;7.17;;;3.50;;
18883;SDS011;9574;47.282;9.640;2023-04-06T10:06:23;5.13;;;3.00;;
18883;SDS011;9574;47.282;9.640;2023-04-06T10:08:56;4.27;;;3.37;;
18883;SDS011;9574;47.282;9.640;2023-04-06T10:11:30;4.73;;;2.97;;
18883;SDS011;9574;47.282;9.640;2023-04-06T10:13:58;4.70;;;3.20;;
18883;SDS011;9574;47.282;9.640;2023-04-06T10:16:26;5.63;;;3.57;;
18883;SDS011;9574;47.282;9.640;2023-04-06T10:18:56;5.37;;;3.40;;
18883;SDS011;9574;47.282;9.640;2023-04-06T10:21:28;5.50;;;3.20;;
18883;SDS011;9574;47.282;9.640;2023-04-06T10:23:59;5.10;;;3.50;;
18883;SDS011;9574;47.282;9.640;2023-04-06T10:26:31;4.67;;;3.60;;
18883;SDS011;9574;47.282;9.640;2023-04-06T10:29:02;5.93;;;3.50;;
18883;SDS011;9574;47.282;9.640;2023-04-06T10:31:31;4.30;;;3.33;;
18883;SDS011;9574;47.282;9.640;2023-04-06T10:34:04;4.90;;;3.00;;
18883;SDS011;9574;47.282;9.640;2023-04-06T10:36:36;4.77;;;3.47;;
18883;SDS011;9574;47.282;9.640;2023-04-06T10:39:07;4.07;;;2.80;;
18883;SDS011;9574;47.282;9.640;2023-04-06T10:41:35;6.90;;;3.33;;
18883;SDS011;9574;47.282;9.640;2023-04-06T10:44:02;3.60;;;2.90;;
18883;SDS011;9574;47.282;9.640;2023-04-06T10:46:32;4.63;;;3.40;;
18883;SDS011;9574;47.282;9.640;2023-04-06T10:49:09;3.07;;;2.70;;
18883;SDS011;9574;47.282;9.640;2023-04-06T10:51:39;4.63;;;3.47;;
18883;SDS011;9574;47.282;9.640;2023-04-06T10:54:12;6.13;;;3.23;;
18883;SDS011;9574;47.282;9.640;2023-04-06T10:56:40;5.17;;;3.30;;
18883;SDS011;9574;47.282;9.640;2023-04-06T10:59:09;5.10;;;3.50;;
18883;SDS011;9574;47.282;9.640;2023-04-06T11:01:38;4.40;;;2.97;;
18883;SDS011;9574;47.282;9.640;2023-04-06T11:04:10;5.03;;;3.23;;
18883;SDS011;9574;47.282;9.640;2023-04-06T11:06:45;4.40;;;3.17;;
18883;SDS011;9574;47.282;9.640;2023-04-06T11:09:24;4.47;;;3.13;;
18883;SDS011;9574;47.282;9.640;2023-04-06T11:12:06;4.43;;;3.13;;
18883;SDS011;9574;47.282;9.640;2023-04-06T11:14:34;5.37;;;3.23;;
18883;SDS011;9574;47.282;9.640;2023-04-06T11:17:01;5.93;;;3.93;;
18883;SDS011;9574;47.282;9.640;2023-04-06T11:19:30;4.70;;;3.50;;
18883;SDS011;9574;47.282;9.640;2023-04-06T11:22:06;4.20;;;3.23;;
18883;SDS011;9574;47.282;9.640;2023-04-06T11:24:36;5.83;;;3.80;;
18883;SDS011;9574;47.282;9.640;2023-04-06T11:27:05;5.07;;;3.50;;
18883;SDS011;9574;47.282;9.640;2023-04-06T11:29:35;4.97;;;3.20;;
18883;SDS011;9574;47.282;9.640;2023-04-06T11:32:03;6.70;;;2.90;;
18883;SDS011;9574;47.282;9.640;2023-04-06T11:34:34;7.77;;;3.63;;
18883;SDS011;9574;47.282;9.640;2023-04-06T11:37:04;4.93;;;3.47;;
18883;SDS011;9574;47.282;9.640;2023-04-06T11:39:42;3.90;;;3.03;;
18883;SDS011;9574;47.282;9.640;2023-04-06T11:42:12;5.93;;;3.63;;
18883;SDS011;9574;47.282;9.640;2023-04-06T11:44:49;4.40;;;3.20;;
18883;SDS011;9574;47.282;9.640;2023-04-06T11:47:18;4.40;;;3.40;;
18883;SDS011;9574;47.282;9.640;2023-04-06T11:49:47;3.93;;;3.00;;
18883;SDS011;9574;47.282;9.640;2023-04-06T11:52:17;4.60;;;3.20;;
18883;SDS011;9574;47.282;9.640;2023-04-06T11:54:47;4.60;;;3.10;;
18883;SDS011;9574;47.282;9.640;2023-04-06T11:57:16;5.03;;;3.40;;
18883;SDS011;9574;47.282;9.640;2023-04-06T11:59:44;3.57;;;3.07;;
18883;SDS011;9574;47.282;9.640;2023-04-06T12:02:12;5.97;;;3.40;;
18883;SDS011;9574;47.282;9.640;2023-04-06T12:04:43;4.90;;;3.03;;
18883;SDS011;9574;47.282;9.640;2023-04-06T12:07:10;8.03;;;3.33;;
18883;SDS011;9574;47.282;9.640;2023-04-06T12:09:39;5.57;;;3.60;;
18883;SDS011;9574;47.282;9.640;2023-04-06T12:12:10;5.37;;;3.87;;
18883;SDS011;9574;47.282;9.640;2023-04-06T12:14:40;4.97;;;3.60;;
18883;SDS011;9574;47.282;9.640;2023-04-06T12:17:10;6.03;;;3.10;;
18883;SDS011;9574;47.282;9.640;2023-04-06T12:19:37;5.30;;;3.67;;
18883;SDS011;9574;47.282;9.640;2023-04-06T12:22:06;5.40;;;3.73;;
18883;SDS011;9574;47.282;9.640;2023-04-06T12:24:33;5.40;;;3.37;;
18883;SDS011;9574;47.282;9.640;2023-04-06T12:27:02;7.87;;;4.00;;
18883;SDS011;9574;47.282;9.640;2023-04-06T12:29:34;4.00;;;3.40;;
18883;SDS011;9574;47.282;9.640;2023-04-06T12:32:02;4.33;;;3.03;;
18883;SDS011;9574;47.282;9.640;2023-04-06T12:34:31;7.20;;;4.00;;
18883;SDS011;9574;47.282;9.640;2023-04-06T12:37:01;5.67;;;3.50;;
18883;SDS011;9574;47.282;9.640;2023-04-06T12:39:28;6.17;;;3.50;;
18883;SDS011;9574;47.282;9.640;2023-04-06T12:41:57;4.70;;;3.50;;
18883;SDS011;9574;47.282;9.640;2023-04-06T12:44:27;5.00;;;3.50;;
18883;SDS011;9574;47.282;9.640;2023-04-06T12:47:04;5.27;;;3.70;;
18883;SDS011;9574;47.282;9.640;2023-04-06T12:49:33;4.47;;;3.30;;
18883;SDS011;9574;47.282;9.640;2023-04-06T12:52:02;6.53;;;3.87;;
18883;SDS011;9574;47.282;9.640;2023-04-06T12:54:35;4.63;;;3.40;;
18883;SDS011;9574;47.282;9.640;2023-04-06T12:57:04;6.63;;;3.83;;
18883;SDS011;9574;47.282;9.640;2023-04-06T12:59:33;5.37;;;3.63;;
18883;SDS011;9574;47.282;9.640;2023-04-06T13:02:04;5.13;;;3.73;;
18883;SDS011;9574;47.282;9.640;2023-04-06T13:04:34;7.20;;;3.83;;
18883;SDS011;9574;47.282;9.640;2023-04-06T13:07:08;7.40;;;3.90;;
18883;SDS011;9574;47.282;9.640;2023-04-06T13:09:37;5.27;;;3.97;;
18883;SDS011;9574;47.282;9.640;2023-04-06T13:12:05;4.07;;;3.23;;
18883;SDS011;9574;47.282;9.640;2023-04-06T13:14:34;4.93;;;3.70;;
18883;SDS011;9574;47.282;9.640;2023-04-06T13:17:02;5.23;;;3.97;;
18883;SDS011;9574;47.282;9.640;2023-04-06T13:19:30;6.27;;;3.73;;
18883;SDS011;9574;47.282;9.640;2023-04-06T13:21:59;4.77;;;3.40;;
18883;SDS011;9574;47.282;9.640;2023-04-06T13:24:27;5.57;;;3.70;;
18883;SDS011;9574;47.282;9.640;2023-04-06T13:26:55;5.83;;;3.90;;
18883;SDS011;9574;47.282;9.640;2023-04-06T13:29:24;5.37;;;3.43;;
18883;SDS011;9574;47.282;9.640;2023-04-06T13:31:51;6.10;;;3.77;;
18883;SDS011;9574;47.282;9.640;2023-04-06T13:34:21;6.77;;;3.97;;
18883;SDS011;9574;47.282;9.640;2023-04-06T13:36:50;5.67;;;3.77;;
18883;SDS011;9574;47.282;9.640;2023-04-06T13:39:19;7.57;;;3.97;;
18883;SDS011;9574;47.282;9.640;2023-04-06T13:41:46;7.83;;;3.80;;
18883;SDS011;9574;47.282;9.640;2023-04-06T13:44:14;3.97;;;3.17;;
18883;SDS011;9574;47.282;9.640;2023-04-06T13:46:42;4.80;;;3.50;;
18883;SDS011;9574;47.282;9.640;2023-04-06T13:49:10;4.87;;;3.20;;
18883;SDS011;9574;47.282;9.640;2023-04-06T13:51:42;6.27;;;3.67;;
18883;SDS011;9574;47.282;9.640;2023-04-06T13:54:12;5.23;;;3.33;;
18883;SDS011;9574;47.282;9.640;2023-04-06T13:56:39;6.47;;;3.37;;
18883;SDS011;9574;47.282;9.640;2023-04-06T13:59:22;6.87;;;3.63;;
18883;SDS011;9574;47.282;9.640;2023-04-06T14:01:49;5.00;;;3.63;;
18883;SDS011;9574;47.282;9.640;2023-04-06T14:04:17;6.90;;;3.47;;
18883;SDS011;9574;47.282;9.640;2023-04-06T14:06:47;7.50;;;3.73;;
18883;SDS011;9574;47.282;9.640;2023-04-06T14:09:15;4.80;;;3.10;;
18883;SDS011;9574;47.282;9.640;2023-04-06T14:11:45;7.70;;;3.40;;
18883;SDS011;9574;47.282;9.640;2023-04-06T14:14:12;6.60;;;3.40;;
18883;SDS011;9574;47.282;9.640;2023-04-06T14:16:42;6.43;;;3.93;;
18883;SDS011;9574;47.282;9.640;2023-04-06T14:19:10;5.80;;;3.40;;
18883;SDS011;9574;47.282;9.640;2023-04-06T14:21:39;4.97;;;3.57;;
18883;SDS011;9574;47.282;9.640;2023-04-06T14:24:12;5.50;;;3.27;;
18883;SDS011;9574;47.282;9.640;2023-04-06T14:26:41;5.90;;;3.50;;
18883;SDS011;9574;47.282;9.640;2023-04-06T14:29:09;3.30;;;3.00;;
18883;SDS011;9574;47.282;9.640;2023-04-06T14:31:39;5.33;;;3.47;;
18883;SDS011;9574;47.282;9.640;2023-04-06T14:34:07;5.23;;;3.63;;
18883;SDS011;9574;47.282;9.640;2023-04-06T14:36:35;7.00;;;4.00;;
18883;SDS011;9574;47.282;9.640;2023-04-06T14:39:09;7.33;;;4.20;;
18883;SDS011;9574;47.282;9.640;2023-04-06T14:41:48;7.97;;;3.93;;
18883;SDS011;9574;47.282;9.640;2023-04-06T14:44:15;5.13;;;3.60;;
18883;SDS011;9574;47.282;9.640;2023-04-06T14:46:42;7.07;;;4.50;;
18883;SDS011;9574;47.282;9.640;2023-04-06T14:49:15;6.80;;;4.07;;
18883;SDS011;9574;47.282;9.640;2023-04-06T14:51:42;5.70;;;3.93;;
18883;SDS011;9574;47.282;9.640;2023-04-06T14:54:12;6.93;;;4.50;;
18883;SDS011;9574;47.282;9.640;2023-04-06T14:56:40;7.23;;;4.50;;
18883;SDS011;9574;47.282;9.640;2023-04-06T14:59:08;8.43;;;4.30;;
18883;SDS011;9574;47.282;9.640;2023-04-06T15:01:36;6.33;;;3.70;;
18883;SDS011;9574;47.282;9.640;2023-04-06T15:04:04;7.60;;;4.07;;
18883;SDS011;9574;47.282;9.640;2023-04-06T15:06:31;7.20;;;3.37;;
18883;SDS011;9574;47.282;9.640;2023-04-06T15:08:59;7.90;;;3.80;;
18883;SDS011;9574;47.282;9.640;2023-04-06T15:11:36;6.67;;;4.13;;
18883;SDS011;9574;47.282;9.640;2023-04-06T15:14:15;6.60;;;3.97;;